Hrossey — VSTY6 — position and weather

sailwx.info

Track history (hours):
 
Tides and Currents Weather Stations Pressure Air Temp Water Temp Dewpoint Dewpoint Depression Visibility Wind Speed Wind Dir Waves Ship Positions

Hrossey

Operator: NorthLink Orkey & Shetland Ferries Ltd

Last reported at 2018-May-27 07:58 UTC. Time now 2018-May-27 08:14 UTC.
Position N 57°09' W 002°05'.

Length 125 m; draft 5.4 m.

Type: Ship. MMSI: 235448000.

Date/timePositionNaut miles runAvg speedWind from/ knotsBaromVisibWave heightAir tempDewpointWater temp
2018-May-27 07:58N 57°09' W 002°05'0 0.0
2018-May-27 07:28N 57°09' W 002°05'0 0.0
2018-May-27 06:58N 57°09' W 002°05'0 0.0
2018-May-27 06:28N 57°09' W 002°05'0 0.0
2018-May-27 05:58N 57°09' W 002°05'1 1.4
2018-May-27 05:31N 57°08' W 002°04'714.7
2018-May-27 05:00N 57°14' W 001°55'3514.8
2018-May-27 02:38N 57°47' W 001°35'214.2
2018-May-27 02:29N 57°49' W 001°34'914.3
2018-May-27 01:51N 57°58' W 001°33'514.3
2018-May-27 01:29N 58°03' W 001°33'714.6
2018-May-27 00:58N 58°11' W 001°32'714.4
2018-May-27 00:28N 58°18' W 001°32'814.6
2018-May-26 23:54N 58°27' W 001°32'614.8
2018-May-26 23:30N 58°32' W 001°31'1115.0
2018-May-26 22:46N 58°43' W 001°29'615.2
2018-May-26 22:23N 58°49' W 001°27'5718.2
2018-May-26 19:17N 59°45' W 001°10'146 6.0
2018-May-25 18:52N 57°20' W 001°47'718.1
2018-May-25 18:31N 57°15' W 001°54'816.5
2018-May-25 18:01N 57°09' W 002°04'1 1.9
2018-May-25 17:29N 57°09' W 002°05'0 0.0
2018-May-25 16:59N 57°09' W 002°05'0 0.0
2018-May-25 16:29N 57°09' W 002°05'0 0.0
2018-May-25 15:59N 57°09' W 002°05'0 0.0
2018-May-25 15:29N 57°09' W 002°05'0 0.0
2018-May-25 15:00N 57°09' W 002°05'0 0.0
2018-May-25 14:30N 57°09' W 002°05'0 0.0
2018-May-25 13:59N 57°09' W 002°05'0 0.0
2018-May-25 13:29N 57°09' W 002°05'0 0.0
2018-May-25 12:59N 57°09' W 002°05'0 0.0
2018-May-25 12:30N 57°09' W 002°05'0 0.0
2018-May-25 11:59N 57°09' W 002°05'0 0.0
2018-May-25 11:29N 57°09' W 002°05'0 0.0
2018-May-25 11:00N 57°09' W 002°05'0 0.0
2018-May-25 10:30N 57°09' W 002°05'0 0.0
2018-May-25 09:59N 57°09' W 002°05'0 0.0
2018-May-25 09:29N 57°09' W 002°05'0 0.0
2018-May-25 08:59N 57°09' W 002°05'0 0.0
2018-May-25 08:29N 57°09' W 002°05'0 0.0
2018-May-25 07:59N 57°09' W 002°05'0 0.0
2018-May-25 07:30N 57°09' W 002°05'0 0.0
2018-May-25 06:59N 57°09' W 002°05'0 0.0
2018-May-25 06:30N 57°09' W 002°05'0 0.0
2018-May-25 05:59N 57°09' W 002°05'1 1.4
2018-May-25 05:31N 57°08' W 002°04'815.6
2018-May-25 05:00N 57°14' W 001°55'815.9
2018-May-25 04:30N 57°21' W 001°46'3 0.1
2018-May-23 18:57N 57°18' W 001°50'613.9
2018-May-23 18:31N 57°13' W 001°56'612.0
2018-May-23 18:00N 57°09' W 002°04'1 1.9
2018-May-23 17:30N 57°09' W 002°05'0 0.0
2018-May-23 17:00N 57°09' W 002°05'0 0.0
2018-May-23 16:30N 57°09' W 002°05'0 0.0
2018-May-23 16:00N 57°09' W 002°05'0 0.0
2018-May-23 15:30N 57°09' W 002°05'0 0.0
2018-May-23 15:00N 57°09' W 002°05'0 0.0
2018-May-23 14:30N 57°09' W 002°05'0 0.0
2018-May-23 14:00N 57°09' W 002°05'0 0.0
2018-May-23 13:30N 57°09' W 002°05'0 0.0
2018-May-23 13:00N 57°09' W 002°05'0 0.0
2018-May-23 12:30N 57°09' W 002°05'0 0.0
2018-May-23 12:00N 57°09' W 002°05'0 0.0
2018-May-23 11:30N 57°09' W 002°05'0 0.0
2018-May-23 11:00N 57°09' W 002°05'0 0.0
2018-May-23 10:30N 57°09' W 002°05'0 0.0
2018-May-23 10:00N 57°09' W 002°05'0 0.0
2018-May-23 09:30N 57°09' W 002°05'0 0.0
2018-May-23 09:00N 57°09' W 002°05'0 0.0
2018-May-23 08:30N 57°09' W 002°05'0 0.0
2018-May-23 08:00N 57°09' W 002°05'0 0.0
2018-May-23 07:30N 57°09' W 002°05'0 0.0
2018-May-23 07:00N 57°09' W 002°05'0 0.0
2018-May-23 06:30N 57°09' W 002°05'0 0.0
2018-May-23 06:00N 57°09' W 002°05'1 1.1
2018-May-23 05:31N 57°09' W 002°04'612.6
2018-May-23 05:00N 57°13' W 001°56'713.0
2018-May-23 04:30N 57°18' W 001°49'19 0.6
2018-May-21 20:27N 57°36' W 001°37'612.9
2018-May-21 20:00N 57°31' W 001°38'1612.6
2018-May-21 18:46N 57°17' W 001°51'413.0
2018-May-21 18:30N 57°14' W 001°55'713.7
2018-May-21 18:01N 57°09' W 002°03'1 2.9
2018-May-21 17:30N 57°09' W 002°05'0 0.0
2018-May-21 17:00N 57°09' W 002°05'0 0.0
2018-May-21 16:27N 57°09' W 002°05'0 0.0
2018-May-21 15:58N 57°09' W 002°05'0 0.0
2018-May-21 15:30N 57°09' W 002°05'0 0.0
2018-May-21 15:00N 57°09' W 002°05'0 0.0
2018-May-21 14:31N 57°09' W 002°05'0 0.0
2018-May-21 14:00N 57°09' W 002°05'0 0.0
2018-May-21 13:28N 57°09' W 002°05'0 0.0
2018-May-21 13:00N 57°09' W 002°05'0 0.0
2018-May-21 12:27N 57°09' W 002°05'0 0.0
2018-May-21 11:57N 57°09' W 002°05'0 0.0
2018-May-21 11:30N 57°09' W 002°05'0 0.0
2018-May-21 11:01N 57°09' W 002°05'0 0.0
2018-May-21 10:28N 57°09' W 002°05'0 0.0
2018-May-21 10:00N 57°09' W 002°05'0 0.0
2018-May-21 09:27N 57°09' W 002°05'0 0.0
2018-May-21 08:58N 57°09' W 002°05'0 0.0
2018-May-21 08:28N 57°09' W 002°05'0 0.0
2018-May-21 08:00N 57°09' W 002°05'0 0.0
2018-May-21 07:30N 57°09' W 002°05'0 0.0
2018-May-21 07:01N 57°09' W 002°05'0 0.0
2018-May-21 06:30N 57°09' W 002°05'0 0.0
2018-May-21 06:01N 57°09' W 002°05'0 1.0
2018-May-21 05:30N 57°09' W 002°05'713.4
2018-May-21 05:00N 57°13' W 001°56'4615.2
2018-May-21 02:00N 57°57' W 001°35'72 2.8
2018-May-20 00:10N 59°04' W 002°27'212.4
2018-May-20 00:00N 59°03' W 002°29'611.8
2018-May-19 23:30N 59°00' W 002°40'815.5
2018-May-19 23:00N 59°01' W 002°55'2 4.2
2018-May-19 22:30N 58°60' W 002°58'0 0.0
2018-May-19 21:56N 58°60' W 002°58'3 6.1
2018-May-19 21:30N 59°01' W 002°54'1020.5
2018-May-19 21:00N 58°56' W 002°36'8323.9
2018-May-19 17:31N 57°37' W 001°45'023.4
2018-May-19 17:31N 57°37' W 001°45'1122.3
2018-May-19 17:00N 57°26' W 001°43'1122.3
2018-May-19 16:30N 57°16' W 001°52'1019.6
2018-May-19 16:01N 57°09' W 002°04'1 1.4
2018-May-19 15:29N 57°09' W 002°05'0 0.0
2018-May-19 14:59N 57°09' W 002°05'0 0.0
2018-May-19 14:29N 57°09' W 002°05'0 0.0
2018-May-19 13:59N 57°09' W 002°05'0 0.0
2018-May-19 13:29N 57°09' W 002°05'0 0.0
2018-May-19 12:59N 57°09' W 002°05'0 0.0
2018-May-19 12:29N 57°09' W 002°05'0 0.0
2018-May-19 11:59N 57°09' W 002°05'0 0.0
2018-May-19 11:29N 57°09' W 002°05'0 0.0
2018-May-19 10:59N 57°09' W 002°05'0 0.0
2018-May-19 10:29N 57°09' W 002°05'0 0.0
2018-May-19 09:59N 57°09' W 002°05'0 0.0
2018-May-19 09:29N 57°09' W 002°05'0 0.0
2018-May-19 08:59N 57°09' W 002°05'0 0.0
2018-May-19 08:29N 57°09' W 002°05'0 0.0
2018-May-19 07:59N 57°09' W 002°05'0 0.0
2018-May-19 07:29N 57°09' W 002°05'0 0.0
2018-May-19 06:59N 57°09' W 002°05'0 0.0
2018-May-19 06:29N 57°09' W 002°05'0 0.0
2018-May-19 05:59N 57°09' W 002°05'1 1.1
2018-May-19 05:30N 57°09' W 002°04'612.2
2018-May-19 05:01N 57°13' W 001°56'1416.0
2018-May-19 04:09N 57°25' W 001°43'216.9
2018-May-19 04:00N 57°27' W 001°43'9221.3
2018-May-18 23:42N 58°54' W 002°36'423.0
2018-May-18 23:30N 58°58' W 002°39'1019.8
2018-May-18 23:00N 59°01' W 002°57'1 2.0
2018-May-18 22:25N 58°60' W 002°58'0 0.0
2018-May-18 21:52N 58°60' W 002°58'0 0.0
2018-May-18 21:31N 58°60' W 002°58'5 9.8
2018-May-18 20:58N 59°01' W 002°48'12 0.6
2018-May-18 00:42N 59°04' W 002°25'211.9
2018-May-18 00:30N 59°03' W 002°28'611.5
2018-May-18 00:00N 59°00' W 002°38'714.4
2018-May-17 23:30N 59°01' W 002°53'3 6.2
2018-May-17 23:00N 58°60' W 002°58'0 0.0
2018-May-17 22:30N 58°60' W 002°58'0 0.0
2018-May-17 22:00N 58°60' W 002°58'4 7.9
2018-May-17 21:29N 59°01' W 002°50'919.9
2018-May-17 21:00N 58°55' W 002°35'8123.6
2018-May-17 17:34N 57°39' W 001°45'125.8
2018-May-17 17:30N 57°37' W 001°45'1224.3
2018-May-17 17:00N 57°25' W 001°44'1223.6
2018-May-17 16:31N 57°14' W 001°54'816.8
2018-May-17 16:00N 57°09' W 002°05'0 0.6
2018-May-17 15:30N 57°09' W 002°05'0 0.0
2018-May-17 15:00N 57°09' W 002°05'0 0.0
2018-May-17 14:30N 57°09' W 002°05'0 0.0
2018-May-17 14:00N 57°09' W 002°05'0 0.0
2018-May-17 13:30N 57°09' W 002°05'0 0.0
2018-May-17 12:58N 57°09' W 002°05'0 0.0
2018-May-17 12:30N 57°09' W 002°05'0 0.0
2018-May-17 12:00N 57°09' W 002°05'0 0.0
2018-May-17 11:28N 57°09' W 002°05'0 0.0
2018-May-17 10:58N 57°09' W 002°05'0 0.0
2018-May-17 10:28N 57°09' W 002°05'0 0.0
2018-May-17 09:58N 57°09' W 002°05'0 0.0
2018-May-17 09:28N 57°09' W 002°05'0 0.0
2018-May-17 08:58N 57°09' W 002°05'0 0.0
2018-May-17 08:28N 57°09' W 002°05'  
Track history (hours):
 
Tides and Currents Weather Stations Pressure Air Temp Water Temp Dewpoint Dewpoint Depression Visibility Wind Speed Wind Dir Waves Ship Positions

Hrossey

Operator: NorthLink Orkey & Shetland Ferries Ltd

Last reported at 2018-May-27 07:58 UTC. Time now 2018-May-27 08:14 UTC.
Position N 57°09' W 002°05'.

Length 125 m; draft 5.4 m.

Type: Ship. MMSI: 235448000.

Date/timePositionNaut miles runAvg speedWind from/ knotsBaromVisibWave heightAir tempDewpointWater temp
2018-May-27 07:58N 57°09' W 002°05'0 0.0
2018-May-27 07:28N 57°09' W 002°05'0 0.0
2018-May-27 06:58N 57°09' W 002°05'0 0.0
2018-May-27 06:28N 57°09' W 002°05'0 0.0
2018-May-27 05:58N 57°09' W 002°05'1 1.4
2018-May-27 05:31N 57°08' W 002°04'714.7
2018-May-27 05:00N 57°14' W 001°55'3514.8
2018-May-27 02:38N 57°47' W 001°35'214.2
2018-May-27 02:29N 57°49' W 001°34'914.3
2018-May-27 01:51N 57°58' W 001°33'514.3
2018-May-27 01:29N 58°03' W 001°33'714.6
2018-May-27 00:58N 58°11' W 001°32'714.4
2018-May-27 00:28N 58°18' W 001°32'814.6
2018-May-26 23:54N 58°27' W 001°32'614.8
2018-May-26 23:30N 58°32' W 001°31'1115.0
2018-May-26 22:46N 58°43' W 001°29'615.2
2018-May-26 22:23N 58°49' W 001°27'5718.2
2018-May-26 19:17N 59°45' W 001°10'146 6.0
2018-May-25 18:52N 57°20' W 001°47'718.1
2018-May-25 18:31N 57°15' W 001°54'816.5
2018-May-25 18:01N 57°09' W 002°04'1 1.9
2018-May-25 17:29N 57°09' W 002°05'0 0.0
2018-May-25 16:59N 57°09' W 002°05'0 0.0
2018-May-25 16:29N 57°09' W 002°05'0 0.0
2018-May-25 15:59N 57°09' W 002°05'0 0.0
2018-May-25 15:29N 57°09' W 002°05'0 0.0
2018-May-25 15:00N 57°09' W 002°05'0 0.0
2018-May-25 14:30N 57°09' W 002°05'0 0.0
2018-May-25 13:59N 57°09' W 002°05'0 0.0
2018-May-25 13:29N 57°09' W 002°05'0 0.0
2018-May-25 12:59N 57°09' W 002°05'0 0.0
2018-May-25 12:30N 57°09' W 002°05'0 0.0
2018-May-25 11:59N 57°09' W 002°05'0 0.0
2018-May-25 11:29N 57°09' W 002°05'0 0.0
2018-May-25 11:00N 57°09' W 002°05'0 0.0
2018-May-25 10:30N 57°09' W 002°05'0 0.0
2018-May-25 09:59N 57°09' W 002°05'0 0.0
2018-May-25 09:29N 57°09' W 002°05'0 0.0
2018-May-25 08:59N 57°09' W 002°05'0 0.0
2018-May-25 08:29N 57°09' W 002°05'0 0.0
2018-May-25 07:59N 57°09' W 002°05'0 0.0
2018-May-25 07:30N 57°09' W 002°05'0 0.0
2018-May-25 06:59N 57°09' W 002°05'0 0.0
2018-May-25 06:30N 57°09' W 002°05'0 0.0
2018-May-25 05:59N 57°09' W 002°05'1 1.4
2018-May-25 05:31N 57°08' W 002°04'815.6
2018-May-25 05:00N 57°14' W 001°55'815.9
2018-May-25 04:30N 57°21' W 001°46'3 0.1
2018-May-23 18:57N 57°18' W 001°50'613.9
2018-May-23 18:31N 57°13' W 001°56'612.0
2018-May-23 18:00N 57°09' W 002°04'1 1.9
2018-May-23 17:30N 57°09' W 002°05'0 0.0
2018-May-23 17:00N 57°09' W 002°05'0 0.0
2018-May-23 16:30N 57°09' W 002°05'0 0.0
2018-May-23 16:00N 57°09' W 002°05'0 0.0
2018-May-23 15:30N 57°09' W 002°05'0 0.0
2018-May-23 15:00N 57°09' W 002°05'0 0.0
2018-May-23 14:30N 57°09' W 002°05'0 0.0
2018-May-23 14:00N 57°09' W 002°05'0 0.0
2018-May-23 13:30N 57°09' W 002°05'0 0.0
2018-May-23 13:00N 57°09' W 002°05'0 0.0
2018-May-23 12:30N 57°09' W 002°05'0 0.0
2018-May-23 12:00N 57°09' W 002°05'0 0.0
2018-May-23 11:30N 57°09' W 002°05'0 0.0
2018-May-23 11:00N 57°09' W 002°05'0 0.0
2018-May-23 10:30N 57°09' W 002°05'0 0.0
2018-May-23 10:00N 57°09' W 002°05'0 0.0
2018-May-23 09:30N 57°09' W 002°05'0 0.0
2018-May-23 09:00N 57°09' W 002°05'0 0.0
2018-May-23 08:30N 57°09' W 002°05'0 0.0
2018-May-23 08:00N 57°09' W 002°05'0 0.0
2018-May-23 07:30N 57°09' W 002°05'0 0.0
2018-May-23 07:00N 57°09' W 002°05'0 0.0
2018-May-23 06:30N 57°09' W 002°05'0 0.0
2018-May-23 06:00N 57°09' W 002°05'1 1.1
2018-May-23 05:31N 57°09' W 002°04'612.6
2018-May-23 05:00N 57°13' W 001°56'713.0
2018-May-23 04:30N 57°18' W 001°49'19 0.6
2018-May-21 20:27N 57°36' W 001°37'612.9
2018-May-21 20:00N 57°31' W 001°38'1612.6
2018-May-21 18:46N 57°17' W 001°51'413.0
2018-May-21 18:30N 57°14' W 001°55'713.7
2018-May-21 18:01N 57°09' W 002°03'1 2.9
2018-May-21 17:30N 57°09' W 002°05'0 0.0
2018-May-21 17:00N 57°09' W 002°05'0 0.0
2018-May-21 16:27N 57°09' W 002°05'0 0.0
2018-May-21 15:58N 57°09' W 002°05'0 0.0
2018-May-21 15:30N 57°09' W 002°05'0 0.0
2018-May-21 15:00N 57°09' W 002°05'0 0.0
2018-May-21 14:31N 57°09' W 002°05'0 0.0
2018-May-21 14:00N 57°09' W 002°05'0 0.0
2018-May-21 13:28N 57°09' W 002°05'0 0.0
2018-May-21 13:00N 57°09' W 002°05'0 0.0
2018-May-21 12:27N 57°09' W 002°05'0 0.0
2018-May-21 11:57N 57°09' W 002°05'0 0.0
2018-May-21 11:30N 57°09' W 002°05'0 0.0
2018-May-21 11:01N 57°09' W 002°05'0 0.0
2018-May-21 10:28N 57°09' W 002°05'0 0.0
2018-May-21 10:00N 57°09' W 002°05'0 0.0
2018-May-21 09:27N 57°09' W 002°05'0 0.0
2018-May-21 08:58N 57°09' W 002°05'0 0.0
2018-May-21 08:28N 57°09' W 002°05'0 0.0
2018-May-21 08:00N 57°09' W 002°05'0 0.0
2018-May-21 07:30N 57°09' W 002°05'0 0.0
2018-May-21 07:01N 57°09' W 002°05'0 0.0
2018-May-21 06:30N 57°09' W 002°05'0 0.0
2018-May-21 06:01N 57°09' W 002°05'0 1.0
2018-May-21 05:30N 57°09' W 002°05'713.4
2018-May-21 05:00N 57°13' W 001°56'4615.2
2018-May-21 02:00N 57°57' W 001°35'72 2.8
2018-May-20 00:10N 59°04' W 002°27'212.4
2018-May-20 00:00N 59°03' W 002°29'611.8
2018-May-19 23:30N 59°00' W 002°40'815.5
2018-May-19 23:00N 59°01' W 002°55'2 4.2
2018-May-19 22:30N 58°60' W 002°58'0 0.0
2018-May-19 21:56N 58°60' W 002°58'3 6.1
2018-May-19 21:30N 59°01' W 002°54'1020.5
2018-May-19 21:00N 58°56' W 002°36'8323.9
2018-May-19 17:31N 57°37' W 001°45'023.4
2018-May-19 17:31N 57°37' W 001°45'1122.3
2018-May-19 17:00N 57°26' W 001°43'1122.3
2018-May-19 16:30N 57°16' W 001°52'1019.6
2018-May-19 16:01N 57°09' W 002°04'1 1.4
2018-May-19 15:29N 57°09' W 002°05'0 0.0
2018-May-19 14:59N 57°09' W 002°05'0 0.0
2018-May-19 14:29N 57°09' W 002°05'0 0.0
2018-May-19 13:59N 57°09' W 002°05'0 0.0
2018-May-19 13:29N 57°09' W 002°05'0 0.0
2018-May-19 12:59N 57°09' W 002°05'0 0.0
2018-May-19 12:29N 57°09' W 002°05'0 0.0
2018-May-19 11:59N 57°09' W 002°05'0 0.0
2018-May-19 11:29N 57°09' W 002°05'0 0.0
2018-May-19 10:59N 57°09' W 002°05'0 0.0
2018-May-19 10:29N 57°09' W 002°05'0 0.0
2018-May-19 09:59N 57°09' W 002°05'0 0.0
2018-May-19 09:29N 57°09' W 002°05'0 0.0
2018-May-19 08:59N 57°09' W 002°05'0 0.0
2018-May-19 08:29N 57°09' W 002°05'0 0.0
2018-May-19 07:59N 57°09' W 002°05'0 0.0
2018-May-19 07:29N 57°09' W 002°05'0 0.0
2018-May-19 06:59N 57°09' W 002°05'0 0.0
2018-May-19 06:29N 57°09' W 002°05'0 0.0
2018-May-19 05:59N 57°09' W 002°05'1 1.1
2018-May-19 05:30N 57°09' W 002°04'612.2
2018-May-19 05:01N 57°13' W 001°56'1416.0
2018-May-19 04:09N 57°25' W 001°43'216.9
2018-May-19 04:00N 57°27' W 001°43'9221.3
2018-May-18 23:42N 58°54' W 002°36'423.0
2018-May-18 23:30N 58°58' W 002°39'1019.8
2018-May-18 23:00N 59°01' W 002°57'1 2.0
2018-May-18 22:25N 58°60' W 002°58'0 0.0
2018-May-18 21:52N 58°60' W 002°58'0 0.0
2018-May-18 21:31N 58°60' W 002°58'5 9.8
2018-May-18 20:58N 59°01' W 002°48'12 0.6
2018-May-18 00:42N 59°04' W 002°25'211.9
2018-May-18 00:30N 59°03' W 002°28'611.5
2018-May-18 00:00N 59°00' W 002°38'714.4
2018-May-17 23:30N 59°01' W 002°53'3 6.2
2018-May-17 23:00N 58°60' W 002°58'0 0.0
2018-May-17 22:30N 58°60' W 002°58'0 0.0
2018-May-17 22:00N 58°60' W 002°58'4 7.9
2018-May-17 21:29N 59°01' W 002°50'919.9
2018-May-17 21:00N 58°55' W 002°35'8123.6
2018-May-17 17:34N 57°39' W 001°45'125.8
2018-May-17 17:30N 57°37' W 001°45'1224.3
2018-May-17 17:00N 57°25' W 001°44'1223.6
2018-May-17 16:31N 57°14' W 001°54'816.8
2018-May-17 16:00N 57°09' W 002°05'0 0.6
2018-May-17 15:30N 57°09' W 002°05'0 0.0
2018-May-17 15:00N 57°09' W 002°05'0 0.0
2018-May-17 14:30N 57°09' W 002°05'0 0.0
2018-May-17 14:00N 57°09' W 002°05'0 0.0
2018-May-17 13:30N 57°09' W 002°05'0 0.0
2018-May-17 12:58N 57°09' W 002°05'0 0.0
2018-May-17 12:30N 57°09' W 002°05'0 0.0
2018-May-17 12:00N 57°09' W 002°05'0 0.0
2018-May-17 11:28N 57°09' W 002°05'0 0.0
2018-May-17 10:58N 57°09' W 002°05'0 0.0
2018-May-17 10:28N 57°09' W 002°05'0 0.0
2018-May-17 09:58N 57°09' W 002°05'0 0.0
2018-May-17 09:28N 57°09' W 002°05'0 0.0
2018-May-17 08:58N 57°09' W 002°05'0 0.0
2018-May-17 08:28N 57°09' W 002°05'  

Dump ship's entire track history